sensor_id;sensor_type;location;lat;lon;timestamp;temperature;humidity
12622;DHT22;6376;48.182;-1.644;2023-02-15T00:00:12;11.80;74.90
12622;DHT22;6376;48.182;-1.644;2023-02-15T00:02:39;11.80;75.00
12622;DHT22;6376;48.182;-1.644;2023-02-15T00:05:05;11.70;74.80
12622;DHT22;6376;48.182;-1.644;2023-02-15T00:07:31;11.70;74.90
12622;DHT22;6376;48.182;-1.644;2023-02-15T00:09:56;11.70;74.90
12622;DHT22;6376;48.182;-1.644;2023-02-15T00:12:22;11.70;74.80
12622;DHT22;6376;48.182;-1.644;2023-02-15T00:14:48;11.70;74.70
12622;DHT22;6376;48.182;-1.644;2023-02-15T00:17:13;11.70;74.90
12622;DHT22;6376;48.182;-1.644;2023-02-15T00:19:39;11.70;74.90
12622;DHT22;6376;48.182;-1.644;2023-02-15T00:22:05;11.60;74.80
12622;DHT22;6376;48.182;-1.644;2023-02-15T00:24:31;11.60;74.90
12622;DHT22;6376;48.182;-1.644;2023-02-15T00:26:57;11.60;74.80
12622;DHT22;6376;48.182;-1.644;2023-02-15T00:29:23;11.60;74.80
12622;DHT22;6376;48.182;-1.644;2023-02-15T00:31:49;11.60;74.80
12622;DHT22;6376;48.182;-1.644;2023-02-15T00:34:19;11.60;74.90
12622;DHT22;6376;48.182;-1.644;2023-02-15T00:36:45;11.60;74.90
12622;DHT22;6376;48.182;-1.644;2023-02-15T00:39:11;11.50;74.90
12622;DHT22;6376;48.182;-1.644;2023-02-15T00:41:37;11.50;75.00
12622;DHT22;6376;48.182;-1.644;2023-02-15T00:44:03;11.50;75.00
12622;DHT22;6376;48.182;-1.644;2023-02-15T00:46:30;11.50;74.80
12622;DHT22;6376;48.182;-1.644;2023-02-15T00:48:56;11.50;74.90
12622;DHT22;6376;48.182;-1.644;2023-02-15T00:51:22;11.50;74.90
12622;DHT22;6376;48.182;-1.644;2023-02-15T00:53:48;11.40;75.50
12622;DHT22;6376;48.182;-1.644;2023-02-15T00:56:14;11.40;74.90
12622;DHT22;6376;48.182;-1.644;2023-02-15T00:58:40;11.40;74.80
12622;DHT22;6376;48.182;-1.644;2023-02-15T01:01:12;11.40;74.90
12622;DHT22;6376;48.182;-1.644;2023-02-15T01:03:38;11.40;75.00
12622;DHT22;6376;48.182;-1.644;2023-02-15T01:06:04;11.40;74.60
12622;DHT22;6376;48.182;-1.644;2023-02-15T01:08:30;11.40;74.80
12622;DHT22;6376;48.182;-1.644;2023-02-15T01:10:56;11.30;74.80
12622;DHT22;6376;48.182;-1.644;2023-02-15T01:13:22;11.30;74.80
12622;DHT22;6376;48.182;-1.644;2023-02-15T01:15:54;11.30;74.90
12622;DHT22;6376;48.182;-1.644;2023-02-15T01:18:21;11.30;74.80
12622;DHT22;6376;48.182;-1.644;2023-02-15T01:20:46;11.30;74.80
12622;DHT22;6376;48.182;-1.644;2023-02-15T01:23:13;11.30;74.80
12622;DHT22;6376;48.182;-1.644;2023-02-15T01:25:38;11.30;74.80
12622;DHT22;6376;48.182;-1.644;2023-02-15T01:28:04;11.30;75.00
12622;DHT22;6376;48.182;-1.644;2023-02-15T01:30:31;11.30;75.00
12622;DHT22;6376;48.182;-1.644;2023-02-15T01:32:57;11.20;74.90
12622;DHT22;6376;48.182;-1.644;2023-02-15T01:35:23;11.20;74.90
12622;DHT22;6376;48.182;-1.644;2023-02-15T01:37:49;11.20;74.60
12622;DHT22;6376;48.182;-1.644;2023-02-15T01:40:17;11.20;74.80
12622;DHT22;6376;48.182;-1.644;2023-02-15T01:42:43;11.20;74.80
12622;DHT22;6376;48.182;-1.644;2023-02-15T01:45:27;11.20;74.90
12622;DHT22;6376;48.182;-1.644;2023-02-15T01:50:37;11.20;75.00
12622;DHT22;6376;48.182;-1.644;2023-02-15T01:53:58;11.20;74.90
12622;DHT22;6376;48.182;-1.644;2023-02-15T01:56:23;11.20;75.00
12622;DHT22;6376;48.182;-1.644;2023-02-15T01:58:51;11.10;74.80
12622;DHT22;6376;48.182;-1.644;2023-02-15T02:01:19;11.10;74.90
12622;DHT22;6376;48.182;-1.644;2023-02-15T02:06:37;11.10;74.90
12622;DHT22;6376;48.182;-1.644;2023-02-15T02:09:04;11.10;74.80
12622;DHT22;6376;48.182;-1.644;2023-02-15T02:11:30;11.10;74.80
12622;DHT22;6376;48.182;-1.644;2023-02-15T02:13:56;11.10;74.80
12622;DHT22;6376;48.182;-1.644;2023-02-15T02:16:28;11.10;74.80
12622;DHT22;6376;48.182;-1.644;2023-02-15T02:30:53;11.00;74.80
12622;DHT22;6376;48.182;-1.644;2023-02-15T02:33:42;11.00;74.80
12622;DHT22;6376;48.182;-1.644;2023-02-15T02:36:40;11.10;74.80
12622;DHT22;6376;48.182;-1.644;2023-02-15T02:39:16;11.00;74.70
12622;DHT22;6376;48.182;-1.644;2023-02-15T02:44:34;11.00;74.80
12622;DHT22;6376;48.182;-1.644;2023-02-15T02:47:43;11.00;74.80
12622;DHT22;6376;48.182;-1.644;2023-02-15T02:49:52;11.00;74.80
12622;DHT22;6376;48.182;-1.644;2023-02-15T02:52:42;11.00;74.80
12622;DHT22;6376;48.182;-1.644;2023-02-15T03:00:19;11.00;74.80
12622;DHT22;6376;48.182;-1.644;2023-02-15T03:02:47;11.00;74.90
12622;DHT22;6376;48.182;-1.644;2023-02-15T03:05:18;10.90;74.90
12622;DHT22;6376;48.182;-1.644;2023-02-15T03:07:47;11.00;74.80
12622;DHT22;6376;48.182;-1.644;2023-02-15T03:10:15;10.90;74.80
12622;DHT22;6376;48.182;-1.644;2023-02-15T03:12:42;10.90;74.80
12622;DHT22;6376;48.182;-1.644;2023-02-15T03:15:21;10.90;74.80
12622;DHT22;6376;48.182;-1.644;2023-02-15T03:17:53;10.90;74.90
12622;DHT22;6376;48.182;-1.644;2023-02-15T03:20:24;10.90;74.90
12622;DHT22;6376;48.182;-1.644;2023-02-15T03:22:59;10.90;74.90
12622;DHT22;6376;48.182;-1.644;2023-02-15T03:25:44;10.90;74.90
12622;DHT22;6376;48.182;-1.644;2023-02-15T03:28:17;10.90;74.90
12622;DHT22;6376;48.182;-1.644;2023-02-15T03:30:47;10.90;75.00
12622;DHT22;6376;48.182;-1.644;2023-02-15T03:33:15;10.90;75.00
12622;DHT22;6376;48.182;-1.644;2023-02-15T03:35:53;10.90;74.90
12622;DHT22;6376;48.182;-1.644;2023-02-15T03:38:36;10.90;74.90
12622;DHT22;6376;48.182;-1.644;2023-02-15T03:41:05;10.80;74.90
12622;DHT22;6376;48.182;-1.644;2023-02-15T03:48:47;10.80;74.90
12622;DHT22;6376;48.182;-1.644;2023-02-15T03:51:23;10.80;74.80
12622;DHT22;6376;48.182;-1.644;2023-02-15T03:54:15;10.80;74.80
12622;DHT22;6376;48.182;-1.644;2023-02-15T03:57:02;10.80;74.90
12622;DHT22;6376;48.182;-1.644;2023-02-15T03:59:47;10.80;74.90
12622;DHT22;6376;48.182;-1.644;2023-02-15T04:02:38;10.80;74.90
12622;DHT22;6376;48.182;-1.644;2023-02-15T04:05:05;10.80;74.90
12622;DHT22;6376;48.182;-1.644;2023-02-15T04:07:31;10.80;74.80
12622;DHT22;6376;48.182;-1.644;2023-02-15T04:09:56;10.80;74.80
12622;DHT22;6376;48.182;-1.644;2023-02-15T04:12:40;10.80;74.80
12622;DHT22;6376;48.182;-1.644;2023-02-15T04:15:08;10.70;74.80
12622;DHT22;6376;48.182;-1.644;2023-02-15T04:17:52;10.70;74.80
12622;DHT22;6376;48.182;-1.644;2023-02-15T04:20:17;10.70;74.70
12622;DHT22;6376;48.182;-1.644;2023-02-15T04:23:06;10.70;74.80
12622;DHT22;6376;48.182;-1.644;2023-02-15T04:25:50;10.70;74.90
12622;DHT22;6376;48.182;-1.644;2023-02-15T04:28:16;10.70;74.80
12622;DHT22;6376;48.182;-1.644;2023-02-15T04:30:41;10.70;74.90
12622;DHT22;6376;48.182;-1.644;2023-02-15T04:33:07;10.70;74.80
12622;DHT22;6376;48.182;-1.644;2023-02-15T04:35:32;10.70;74.90
12622;DHT22;6376;48.182;-1.644;2023-02-15T04:37:59;10.70;74.80
12622;DHT22;6376;48.182;-1.644;2023-02-15T04:40:24;10.70;74.80
12622;DHT22;6376;48.182;-1.644;2023-02-15T04:42:50;10.70;74.80
12622;DHT22;6376;48.182;-1.644;2023-02-15T04:45:16;10.70;74.80
12622;DHT22;6376;48.182;-1.644;2023-02-15T04:47:42;10.70;74.80
12622;DHT22;6376;48.182;-1.644;2023-02-15T04:50:08;10.60;74.80
12622;DHT22;6376;48.182;-1.644;2023-02-15T04:52:34;10.60;74.80
12622;DHT22;6376;48.182;-1.644;2023-02-15T04:54:59;10.60;74.80
12622;DHT22;6376;48.182;-1.644;2023-02-15T04:57:25;10.60;74.80
12622;DHT22;6376;48.182;-1.644;2023-02-15T04:59:51;10.60;74.80
12622;DHT22;6376;48.182;-1.644;2023-02-15T05:02:16;10.60;74.80
12622;DHT22;6376;48.182;-1.644;2023-02-15T05:04:42;10.60;74.70
12622;DHT22;6376;48.182;-1.644;2023-02-15T05:07:08;10.60;74.80
12622;DHT22;6376;48.182;-1.644;2023-02-15T05:09:33;10.60;74.70
12622;DHT22;6376;48.182;-1.644;2023-02-15T05:11:59;10.60;74.80
12622;DHT22;6376;48.182;-1.644;2023-02-15T05:14:24;10.60;74.90
12622;DHT22;6376;48.182;-1.644;2023-02-15T05:16:50;10.60;74.90
12622;DHT22;6376;48.182;-1.644;2023-02-15T05:19:16;10.60;74.80
12622;DHT22;6376;48.182;-1.644;2023-02-15T05:21:41;10.60;74.90
12622;DHT22;6376;48.182;-1.644;2023-02-15T05:24:07;10.60;74.80
12622;DHT22;6376;48.182;-1.644;2023-02-15T05:26:53;10.60;74.80
12622;DHT22;6376;48.182;-1.644;2023-02-15T05:29:37;10.50;74.80
12622;DHT22;6376;48.182;-1.644;2023-02-15T05:32:02;10.50;74.70
12622;DHT22;6376;48.182;-1.644;2023-02-15T05:34:29;10.50;74.70
12622;DHT22;6376;48.182;-1.644;2023-02-15T05:36:55;10.50;74.80
12622;DHT22;6376;48.182;-1.644;2023-02-15T05:39:20;10.50;74.80
12622;DHT22;6376;48.182;-1.644;2023-02-15T05:41:46;10.50;74.80
12622;DHT22;6376;48.182;-1.644;2023-02-15T05:44:12;10.50;74.70
12622;DHT22;6376;48.182;-1.644;2023-02-15T05:46:37;10.50;74.70
12622;DHT22;6376;48.182;-1.644;2023-02-15T05:49:03;10.50;74.70
12622;DHT22;6376;48.182;-1.644;2023-02-15T05:51:28;10.50;74.70
12622;DHT22;6376;48.182;-1.644;2023-02-15T05:53:54;10.50;74.80
12622;DHT22;6376;48.182;-1.644;2023-02-15T05:56:20;10.50;74.70
12622;DHT22;6376;48.182;-1.644;2023-02-15T05:58:45;10.50;74.80
12622;DHT22;6376;48.182;-1.644;2023-02-15T06:03:38;10.50;74.70
12622;DHT22;6376;48.182;-1.644;2023-02-15T06:06:03;10.50;74.80
12622;DHT22;6376;48.182;-1.644;2023-02-15T06:08:30;10.50;74.80
12622;DHT22;6376;48.182;-1.644;2023-02-15T06:10:56;10.50;74.80
12622;DHT22;6376;48.182;-1.644;2023-02-15T06:13:21;10.50;74.80
12622;DHT22;6376;48.182;-1.644;2023-02-15T06:15:47;10.50;74.80
12622;DHT22;6376;48.182;-1.644;2023-02-15T06:18:12;10.50;74.70
12622;DHT22;6376;48.182;-1.644;2023-02-15T06:20:38;10.40;74.70
12622;DHT22;6376;48.182;-1.644;2023-02-15T06:23:04;10.40;74.70
12622;DHT22;6376;48.182;-1.644;2023-02-15T06:25:29;10.50;74.70
12622;DHT22;6376;48.182;-1.644;2023-02-15T06:27:55;10.40;74.70
12622;DHT22;6376;48.182;-1.644;2023-02-15T06:30:21;10.40;74.70
12622;DHT22;6376;48.182;-1.644;2023-02-15T06:32:46;10.40;74.70
12622;DHT22;6376;48.182;-1.644;2023-02-15T06:35:12;10.40;74.70
12622;DHT22;6376;48.182;-1.644;2023-02-15T06:37:38;10.40;74.80
12622;DHT22;6376;48.182;-1.644;2023-02-15T06:40:04;10.40;74.70
12622;DHT22;6376;48.182;-1.644;2023-02-15T06:42:30;10.40;74.90
12622;DHT22;6376;48.182;-1.644;2023-02-15T06:44:56;10.40;74.90
12622;DHT22;6376;48.182;-1.644;2023-02-15T06:47:21;10.40;74.90
12622;DHT22;6376;48.182;-1.644;2023-02-15T06:49:47;10.30;74.80
12622;DHT22;6376;48.182;-1.644;2023-02-15T06:52:13;10.30;74.90
12622;DHT22;6376;48.182;-1.644;2023-02-15T06:54:38;10.30;74.90
12622;DHT22;6376;48.182;-1.644;2023-02-15T06:57:04;10.30;74.90
12622;DHT22;6376;48.182;-1.644;2023-02-15T06:59:29;10.30;74.80
12622;DHT22;6376;48.182;-1.644;2023-02-15T07:01:55;10.30;74.80
12622;DHT22;6376;48.182;-1.644;2023-02-15T07:04:21;10.30;74.80
12622;DHT22;6376;48.182;-1.644;2023-02-15T07:06:46;10.30;74.90
12622;DHT22;6376;48.182;-1.644;2023-02-15T07:09:12;10.30;74.80
12622;DHT22;6376;48.182;-1.644;2023-02-15T07:11:38;10.30;74.70
12622;DHT22;6376;48.182;-1.644;2023-02-15T07:14:22;10.30;74.70
12622;DHT22;6376;48.182;-1.644;2023-02-15T07:16:48;10.30;74.90
12622;DHT22;6376;48.182;-1.644;2023-02-15T07:19:14;10.30;74.90
12622;DHT22;6376;48.182;-1.644;2023-02-15T07:21:39;10.30;74.90
12622;DHT22;6376;48.182;-1.644;2023-02-15T07:24:05;10.20;74.70
12622;DHT22;6376;48.182;-1.644;2023-02-15T07:26:32;10.20;74.80
12622;DHT22;6376;48.182;-1.644;2023-02-15T07:28:57;10.20;74.70
12622;DHT22;6376;48.182;-1.644;2023-02-15T07:31:23;10.20;74.70
12622;DHT22;6376;48.182;-1.644;2023-02-15T07:33:49;10.20;74.70
12622;DHT22;6376;48.182;-1.644;2023-02-15T07:36:14;10.30;74.90
12622;DHT22;6376;48.182;-1.644;2023-02-15T07:38:41;10.20;74.80
12622;DHT22;6376;48.182;-1.644;2023-02-15T07:41:10;10.20;74.90
12622;DHT22;6376;48.182;-1.644;2023-02-15T07:43:39;10.20;74.80
12622;DHT22;6376;48.182;-1.644;2023-02-15T07:46:07;10.20;74.80
12622;DHT22;6376;48.182;-1.644;2023-02-15T07:48:34;10.20;74.70
12622;DHT22;6376;48.182;-1.644;2023-02-15T07:51:02;10.20;74.70
12622;DHT22;6376;48.182;-1.644;2023-02-15T07:53:28;10.20;74.70
12622;DHT22;6376;48.182;-1.644;2023-02-15T07:55:54;10.20;74.80
12622;DHT22;6376;48.182;-1.644;2023-02-15T07:58:23;10.20;74.70
12622;DHT22;6376;48.182;-1.644;2023-02-15T08:01:08;10.20;74.60
12622;DHT22;6376;48.182;-1.644;2023-02-15T08:03:34;10.20;74.60
12622;DHT22;6376;48.182;-1.644;2023-02-15T08:05:59;10.20;74.70
12622;DHT22;6376;48.182;-1.644;2023-02-15T08:08:26;10.20;74.60
12622;DHT22;6376;48.182;-1.644;2023-02-15T08:11:05;10.20;74.50
12622;DHT22;6376;48.182;-1.644;2023-02-15T08:13:51;10.30;74.30
12622;DHT22;6376;48.182;-1.644;2023-02-15T08:16:26;10.50;73.40
12622;DHT22;6376;48.182;-1.644;2023-02-15T08:18:52;10.40;73.30
12622;DHT22;6376;48.182;-1.644;2023-02-15T08:21:19;10.50;73.10
12622;DHT22;6376;48.182;-1.644;2023-02-15T08:23:45;10.60;72.60
12622;DHT22;6376;48.182;-1.644;2023-02-15T08:26:11;10.70;72.10
12622;DHT22;6376;48.182;-1.644;2023-02-15T08:28:37;10.40;73.00
12622;DHT22;6376;48.182;-1.644;2023-02-15T08:31:10;10.40;73.40
12622;DHT22;6376;48.182;-1.644;2023-02-15T08:33:38;10.70;73.20
12622;DHT22;6376;48.182;-1.644;2023-02-15T08:36:10;10.90;72.10
12622;DHT22;6376;48.182;-1.644;2023-02-15T08:38:36;11.10;71.70
12622;DHT22;6376;48.182;-1.644;2023-02-15T08:41:23;11.10;71.30
12622;DHT22;6376;48.182;-1.644;2023-02-15T08:43:54;11.30;70.70
12622;DHT22;6376;48.182;-1.644;2023-02-15T08:46:21;11.40;70.40
12622;DHT22;6376;48.182;-1.644;2023-02-15T08:48:47;11.40;70.10
12622;DHT22;6376;48.182;-1.644;2023-02-15T08:51:21;11.40;70.00
12622;DHT22;6376;48.182;-1.644;2023-02-15T08:53:49;11.40;70.10
12622;DHT22;6376;48.182;-1.644;2023-02-15T08:56:16;11.40;70.00
12622;DHT22;6376;48.182;-1.644;2023-02-15T08:58:42;11.40;69.90
12622;DHT22;6376;48.182;-1.644;2023-02-15T09:03:35;11.60;69.30
12622;DHT22;6376;48.182;-1.644;2023-02-15T09:06:01;11.60;69.00
12622;DHT22;6376;48.182;-1.644;2023-02-15T09:08:27;11.60;68.80
12622;DHT22;6376;48.182;-1.644;2023-02-15T09:10:53;11.70;68.70
12622;DHT22;6376;48.182;-1.644;2023-02-15T09:13:20;11.70;68.60
12622;DHT22;6376;48.182;-1.644;2023-02-15T09:15:46;11.80;68.40
12622;DHT22;6376;48.182;-1.644;2023-02-15T09:18:12;11.80;68.30
12622;DHT22;6376;48.182;-1.644;2023-02-15T09:20:43;11.90;68.10
12622;DHT22;6376;48.182;-1.644;2023-02-15T09:23:08;11.90;67.80
12622;DHT22;6376;48.182;-1.644;2023-02-15T09:25:34;12.00;67.60
12622;DHT22;6376;48.182;-1.644;2023-02-15T09:28:00;12.10;67.50
12622;DHT22;6376;48.182;-1.644;2023-02-15T09:30:25;12.20;67.40
12622;DHT22;6376;48.182;-1.644;2023-02-15T09:32:51;12.20;67.10
12622;DHT22;6376;48.182;-1.644;2023-02-15T09:35:17;12.20;66.90
12622;DHT22;6376;48.182;-1.644;2023-02-15T09:37:42;12.30;66.70
12622;DHT22;6376;48.182;-1.644;2023-02-15T09:40:08;12.40;66.70
12622;DHT22;6376;48.182;-1.644;2023-02-15T09:43:08;12.40;66.60
12622;DHT22;6376;48.182;-1.644;2023-02-15T09:46:05;12.40;66.30
12622;DHT22;6376;48.182;-1.644;2023-02-15T09:48:40;12.60;66.00
12622;DHT22;6376;48.182;-1.644;2023-02-15T09:51:26;12.60;65.80
12622;DHT22;6376;48.182;-1.644;2023-02-15T09:56:32;12.70;65.40
12622;DHT22;6376;48.182;-1.644;2023-02-15T10:02:19;12.80;65.00
12622;DHT22;6376;48.182;-1.644;2023-02-15T10:05:11;12.90;64.80
12622;DHT22;6376;48.182;-1.644;2023-02-15T10:19:26;13.10;64.40
12622;DHT22;6376;48.182;-1.644;2023-02-15T10:22:13;13.20;64.10
12622;DHT22;6376;48.182;-1.644;2023-02-15T10:27:45;13.30;64.00
12622;DHT22;6376;48.182;-1.644;2023-02-15T10:30:35;13.30;63.80
12622;DHT22;6376;48.182;-1.644;2023-02-15T10:33:20;13.30;63.70
12622;DHT22;6376;48.182;-1.644;2023-02-15T10:36:05;13.30;63.70
12622;DHT22;6376;48.182;-1.644;2023-02-15T10:38:42;13.40;63.70
12622;DHT22;6376;48.182;-1.644;2023-02-15T10:49:03;13.50;63.30
12622;DHT22;6376;48.182;-1.644;2023-02-15T10:54:28;13.60;63.40
12622;DHT22;6376;48.182;-1.644;2023-02-15T10:57:04;13.60;63.40
12622;DHT22;6376;48.182;-1.644;2023-02-15T11:05:45;13.60;64.20
12622;DHT22;6376;48.182;-1.644;2023-02-15T11:08:16;13.70;63.40
12622;DHT22;6376;48.182;-1.644;2023-02-15T11:10:56;13.60;63.40
12622;DHT22;6376;48.182;-1.644;2023-02-15T11:13:26;13.70;63.40
12622;DHT22;6376;48.182;-1.644;2023-02-15T11:15:59;13.70;63.40
12622;DHT22;6376;48.182;-1.644;2023-02-15T11:18:47;13.70;63.60
12622;DHT22;6376;48.182;-1.644;2023-02-15T11:21:33;13.70;63.50
12622;DHT22;6376;48.182;-1.644;2023-02-15T11:24:10;13.70;63.70
12622;DHT22;6376;48.182;-1.644;2023-02-15T11:26:42;13.70;63.60
12622;DHT22;6376;48.182;-1.644;2023-02-15T11:29:12;13.70;63.50
12622;DHT22;6376;48.182;-1.644;2023-02-15T11:31:47;13.80;63.60
12622;DHT22;6376;48.182;-1.644;2023-02-15T11:34:34;13.80;63.40
12622;DHT22;6376;48.182;-1.644;2023-02-15T11:37:07;13.80;63.40
12622;DHT22;6376;48.182;-1.644;2023-02-15T11:39:35;13.90;63.40
12622;DHT22;6376;48.182;-1.644;2023-02-15T11:42:06;13.90;63.30
12622;DHT22;6376;48.182;-1.644;2023-02-15T11:44:54;13.90;63.20
12622;DHT22;6376;48.182;-1.644;2023-02-15T11:47:21;13.80;63.60
12622;DHT22;6376;48.182;-1.644;2023-02-15T11:49:47;13.70;64.00
12622;DHT22;6376;48.182;-1.644;2023-02-15T11:52:15;13.60;64.40
12622;DHT22;6376;48.182;-1.644;2023-02-15T11:54:51;13.50;64.90
12622;DHT22;6376;48.182;-1.644;2023-02-15T11:57:31;13.40;65.20
12622;DHT22;6376;48.182;-1.644;2023-02-15T12:02:40;13.30;65.70
12622;DHT22;6376;48.182;-1.644;2023-02-15T12:05:15;13.20;65.90
12622;DHT22;6376;48.182;-1.644;2023-02-15T12:07:49;13.20;66.10
12622;DHT22;6376;48.182;-1.644;2023-02-15T12:10:30;13.20;66.20
12622;DHT22;6376;48.182;-1.644;2023-02-15T12:13:14;13.10;66.30
12622;DHT22;6376;48.182;-1.644;2023-02-15T12:15:50;13.10;66.50
12622;DHT22;6376;48.182;-1.644;2023-02-15T12:21:10;13.00;66.70
12622;DHT22;6376;48.182;-1.644;2023-02-15T12:23:48;13.00;66.90
12622;DHT22;6376;48.182;-1.644;2023-02-15T12:26:33;13.00;67.00
12622;DHT22;6376;48.182;-1.644;2023-02-15T12:29:06;13.00;67.10
12622;DHT22;6376;48.182;-1.644;2023-02-15T12:31:39;12.90;67.10
12622;DHT22;6376;48.182;-1.644;2023-02-15T12:34:18;12.90;67.30
12622;DHT22;6376;48.182;-1.644;2023-02-15T12:36:47;12.90;67.30
12622;DHT22;6376;48.182;-1.644;2023-02-15T12:39:29;12.90;67.50
12622;DHT22;6376;48.182;-1.644;2023-02-15T12:44:23;12.80;67.60
12622;DHT22;6376;48.182;-1.644;2023-02-15T12:47:10;12.80;67.70
12622;DHT22;6376;48.182;-1.644;2023-02-15T12:49:43;12.80;67.80
12622;DHT22;6376;48.182;-1.644;2023-02-15T12:54:47;12.80;68.00
12622;DHT22;6376;48.182;-1.644;2023-02-15T12:57:30;12.80;68.10
12622;DHT22;6376;48.182;-1.644;2023-02-15T13:00:03;12.80;68.20
12622;DHT22;6376;48.182;-1.644;2023-02-15T13:02:46;12.70;68.20
12622;DHT22;6376;48.182;-1.644;2023-02-15T13:07:58;12.70;68.50
12622;DHT22;6376;48.182;-1.644;2023-02-15T13:10:36;12.70;68.50
12622;DHT22;6376;48.182;-1.644;2023-02-15T13:13:10;12.70;68.60
12622;DHT22;6376;48.182;-1.644;2023-02-15T13:15:40;12.60;68.50
12622;DHT22;6376;48.182;-1.644;2023-02-15T13:18:15;12.70;68.70
12622;DHT22;6376;48.182;-1.644;2023-02-15T13:20:42;12.70;68.80
12622;DHT22;6376;48.182;-1.644;2023-02-15T13:23:27;12.70;68.90
12622;DHT22;6376;48.182;-1.644;2023-02-15T13:25:58;12.60;68.90
12622;DHT22;6376;48.182;-1.644;2023-02-15T13:28:46;12.70;68.90
12622;DHT22;6376;48.182;-1.644;2023-02-15T13:31:15;12.60;68.90
12622;DHT22;6376;48.182;-1.644;2023-02-15T13:33:51;12.60;69.00
12622;DHT22;6376;48.182;-1.644;2023-02-15T13:39:41;12.60;69.00
12622;DHT22;6376;48.182;-1.644;2023-02-15T13:41:50;12.60;69.20
12622;DHT22;6376;48.182;-1.644;2023-02-15T13:44:36;12.60;69.20
12622;DHT22;6376;48.182;-1.644;2023-02-15T13:47:17;12.60;69.20
12622;DHT22;6376;48.182;-1.644;2023-02-15T13:52:21;12.60;69.30
12622;DHT22;6376;48.182;-1.644;2023-02-15T13:58:16;12.60;69.40
12622;DHT22;6376;48.182;-1.644;2023-02-15T14:07:15;12.50;69.50
12622;DHT22;6376;48.182;-1.644;2023-02-15T14:15:49;12.50;69.60
12622;DHT22;6376;48.182;-1.644;2023-02-15T14:18:23;12.50;69.70
12622;DHT22;6376;48.182;-1.644;2023-02-15T14:26:16;12.50;69.80
12622;DHT22;6376;48.182;-1.644;2023-02-15T14:29:09;12.50;69.80
12622;DHT22;6376;48.182;-1.644;2023-02-15T14:31:47;12.50;69.80
12622;DHT22;6376;48.182;-1.644;2023-02-15T14:34:31;12.50;69.80
12622;DHT22;6376;48.182;-1.644;2023-02-15T14:37:03;12.50;69.90
12622;DHT22;6376;48.182;-1.644;2023-02-15T14:39:50;12.50;69.80
12622;DHT22;6376;48.182;-1.644;2023-02-15T14:42:50;12.50;70.00
12622;DHT22;6376;48.182;-1.644;2023-02-15T14:45:30;12.50;70.00
12622;DHT22;6376;48.182;-1.644;2023-02-15T14:48:16;12.50;70.00
12622;DHT22;6376;48.182;-1.644;2023-02-15T14:50:46;12.50;70.00
12622;DHT22;6376;48.182;-1.644;2023-02-15T14:55:41;12.50;70.00
12622;DHT22;6376;48.182;-1.644;2023-02-15T14:58:13;12.50;70.00
12622;DHT22;6376;48.182;-1.644;2023-02-15T15:00:42;12.50;70.10
12622;DHT22;6376;48.182;-1.644;2023-02-15T15:03:23;12.50;70.10
12622;DHT22;6376;48.182;-1.644;2023-02-15T15:05:54;12.50;70.10
12622;DHT22;6376;48.182;-1.644;2023-02-15T15:08:36;12.50;70.10
12622;DHT22;6376;48.182;-1.644;2023-02-15T15:17:04;12.50;70.10
12622;DHT22;6376;48.182;-1.644;2023-02-15T15:22:24;12.40;70.40
12622;DHT22;6376;48.182;-1.644;2023-02-15T15:24:54;12.40;70.40
12622;DHT22;6376;48.182;-1.644;2023-02-15T15:27:40;12.50;70.20
12622;DHT22;6376;48.182;-1.644;2023-02-15T15:38:32;12.50;70.30
12622;DHT22;6376;48.182;-1.644;2023-02-15T15:41:19;12.50;70.20
12622;DHT22;6376;48.182;-1.644;2023-02-15T15:44:31;12.40;70.40
12622;DHT22;6376;48.182;-1.644;2023-02-15T15:49:37;12.40;70.40
12622;DHT22;6376;48.182;-1.644;2023-02-15T15:52:12;12.40;70.50
12622;DHT22;6376;48.182;-1.644;2023-02-15T15:54:39;12.40;70.50
12622;DHT22;6376;48.182;-1.644;2023-02-15T15:57:16;12.40;70.50
12622;DHT22;6376;48.182;-1.644;2023-02-15T15:59:45;12.40;70.40
12622;DHT22;6376;48.182;-1.644;2023-02-15T16:02:17;12.40;70.40
12622;DHT22;6376;48.182;-1.644;2023-02-15T16:04:44;12.40;70.40
12622;DHT22;6376;48.182;-1.644;2023-02-15T16:10:00;12.40;70.50
12622;DHT22;6376;48.182;-1.644;2023-02-15T16:12:31;12.40;70.50
12622;DHT22;6376;48.182;-1.644;2023-02-15T16:15:04;12.40;70.50
12622;DHT22;6376;48.182;-1.644;2023-02-15T16:17:41;12.40;70.70
12622;DHT22;6376;48.182;-1.644;2023-02-15T16:20:25;12.40;70.80
12622;DHT22;6376;48.182;-1.644;2023-02-15T16:28:36;12.40;70.60
12622;DHT22;6376;48.182;-1.644;2023-02-15T16:31:13;12.40;70.50
12622;DHT22;6376;48.182;-1.644;2023-02-15T16:33:41;12.40;70.60
12622;DHT22;6376;48.182;-1.644;2023-02-15T16:36:20;12.40;70.50
12622;DHT22;6376;48.182;-1.644;2023-02-15T16:41:23;12.30;70.10
12622;DHT22;6376;48.182;-1.644;2023-02-15T16:43:50;12.30;70.20
12622;DHT22;6376;48.182;-1.644;2023-02-15T16:46:28;12.20;70.30
12622;DHT22;6376;48.182;-1.644;2023-02-15T16:48:57;12.20;70.50
12622;DHT22;6376;48.182;-1.644;2023-02-15T16:51:30;12.20;70.50
12622;DHT22;6376;48.182;-1.644;2023-02-15T16:54:00;12.10;70.50
12622;DHT22;6376;48.182;-1.644;2023-02-15T16:56:30;12.10;70.60
12622;DHT22;6376;48.182;-1.644;2023-02-15T16:58:57;12.10;70.70
12622;DHT22;6376;48.182;-1.644;2023-02-15T17:01:26;12.10;70.80
12622;DHT22;6376;48.182;-1.644;2023-02-15T17:07:16;12.10;71.00
12622;DHT22;6376;48.182;-1.644;2023-02-15T17:09:53;12.10;71.10
12622;DHT22;6376;48.182;-1.644;2023-02-15T17:12:48;12.10;71.20
12622;DHT22;6376;48.182;-1.644;2023-02-15T17:15:39;12.10;71.20
12622;DHT22;6376;48.182;-1.644;2023-02-15T17:20:41;12.20;71.20
12622;DHT22;6376;48.182;-1.644;2023-02-15T17:25:45;12.20;71.10
12622;DHT22;6376;48.182;-1.644;2023-02-15T17:28:22;12.20;71.20
12622;DHT22;6376;48.182;-1.644;2023-02-15T17:30:50;12.20;71.10
12622;DHT22;6376;48.182;-1.644;2023-02-15T17:41:30;12.20;71.30
12622;DHT22;6376;48.182;-1.644;2023-02-15T17:43:57;12.20;71.30
12622;DHT22;6376;48.182;-1.644;2023-02-15T17:46:23;12.20;71.40
12622;DHT22;6376;48.182;-1.644;2023-02-15T17:48:51;12.20;71.40
12622;DHT22;6376;48.182;-1.644;2023-02-15T17:51:18;12.20;71.50
12622;DHT22;6376;48.182;-1.644;2023-02-15T17:53:45;12.20;71.50
12622;DHT22;6376;48.182;-1.644;2023-02-15T17:56:35;12.20;71.60
12622;DHT22;6376;48.182;-1.644;2023-02-15T17:59:01;12.20;71.60
12622;DHT22;6376;48.182;-1.644;2023-02-15T18:01:26;12.20;71.70
12622;DHT22;6376;48.182;-1.644;2023-02-15T18:04:12;12.20;71.70
12622;DHT22;6376;48.182;-1.644;2023-02-15T18:06:57;12.20;71.80
12622;DHT22;6376;48.182;-1.644;2023-02-15T18:09:42;12.20;71.70
12622;DHT22;6376;48.182;-1.644;2023-02-15T18:12:34;12.20;71.80
12622;DHT22;6376;48.182;-1.644;2023-02-15T18:15:04;12.10;71.80
12622;DHT22;6376;48.182;-1.644;2023-02-15T18:17:42;12.10;71.80
12622;DHT22;6376;48.182;-1.644;2023-02-15T18:20:35;12.10;71.80
12622;DHT22;6376;48.182;-1.644;2023-02-15T18:23:01;12.10;72.10
12622;DHT22;6376;48.182;-1.644;2023-02-15T18:25:27;12.10;72.10
12622;DHT22;6376;48.182;-1.644;2023-02-15T18:27:54;12.10;72.10
12622;DHT22;6376;48.182;-1.644;2023-02-15T18:30:21;12.10;72.10
12622;DHT22;6376;48.182;-1.644;2023-02-15T18:32:50;12.10;72.10
12622;DHT22;6376;48.182;-1.644;2023-02-15T18:35:18;12.10;72.20
12622;DHT22;6376;48.182;-1.644;2023-02-15T18:37:45;12.10;72.20
12622;DHT22;6376;48.182;-1.644;2023-02-15T18:40:16;12.10;72.20